Řízení letového provozu České republiky
Letiste: LKPR Aktualizace: 27.03.2017 12:30:28  UTC
 METAR LKPR 27.03. 12:30 ...
METAR LKPR 271230Z VRB03KT CAVOK 13/M05 Q1026 NOSIG RMK REG QNH 1022=
 TAF LKPR 27.03. 11:00 ...
TAF LKPR 271100Z 2712/2818 VRB02KT CAVOK      TEMPO 2712/2719 15006KT      BECMG 2806/2809 25010KT=